createdAt,value
2024-03-16T00:02:52.330Z,99.74
2024-03-16T00:12:54.460Z,99.33
2024-03-16T00:22:57.538Z,98.45
2024-03-16T00:32:59.863Z,98.42
2024-03-16T00:43:03.436Z,100
2024-03-16T00:53:06.238Z,99.72
2024-03-16T01:03:08.701Z,97.84
2024-03-16T01:13:11.334Z,98.12
2024-03-16T01:23:13.931Z,97.49
2024-03-16T01:33:15.998Z,98.1
2024-03-16T01:43:18.970Z,97.44
2024-03-16T01:53:21.311Z,98.56
2024-03-16T02:03:24.265Z,100
2024-03-16T02:13:27.265Z,100
2024-03-16T02:23:29.889Z,100
2024-03-16T02:33:32.463Z,100
2024-03-16T02:43:34.914Z,98.75
2024-03-16T02:53:37.112Z,99.69
2024-03-16T03:03:39.947Z,100
2024-03-16T03:13:43.595Z,100
2024-03-16T03:23:50.308Z,100
2024-03-16T03:33:53.119Z,100
2024-03-16T03:43:56.569Z,100
2024-03-16T03:53:58.855Z,100
2024-03-16T04:04:01.118Z,99.5
2024-03-16T04:14:03.876Z,99.71
2024-03-16T04:24:06.419Z,98.88
2024-03-16T04:34:09.146Z,98.67
2024-03-16T04:44:11.923Z,99.92
2024-03-16T04:54:14.119Z,100
2024-03-16T05:04:17.203Z,99.04
2024-03-16T05:14:19.870Z,98.51
2024-03-16T05:24:22.024Z,97.26
2024-03-16T05:34:24.159Z,97.1
2024-03-16T05:44:26.839Z,98.63
2024-03-16T05:54:29.292Z,98.94
2024-03-16T06:04:31.820Z,99.63
2024-03-16T06:14:34.445Z,99.7
2024-03-16T06:24:36.998Z,98.46
2024-03-16T06:34:39.572Z,99.46
2024-03-16T06:44:42.043Z,96.18
2024-03-16T06:54:46.333Z,93.96
2024-03-16T07:04:49.238Z,97.18
2024-03-16T07:14:51.414Z,96.39
2024-03-16T07:24:53.874Z,100
2024-03-16T07:34:56.358Z,100
2024-03-16T07:44:59.496Z,97.1
2024-03-16T07:55:01.860Z,100
2024-03-16T08:05:04.998Z,98.42
2024-03-16T08:15:07.227Z,100
2024-03-16T08:25:09.712Z,97.93
2024-03-16T08:35:12.940Z,100
2024-03-16T08:45:15.032Z,100
2024-03-16T08:55:17.967Z,100
2024-03-16T09:05:21.389Z,100
2024-03-16T09:15:24.175Z,100
2024-03-16T09:25:26.107Z,100
2024-03-16T09:35:28.514Z,100
2024-03-16T09:45:31.170Z,100
2024-03-16T09:55:33.805Z,100
2024-03-16T10:05:36.311Z,100
2024-03-16T10:15:38.360Z,95.23
2024-03-16T10:25:40.666Z,93.93
2024-03-16T10:35:43.286Z,91.74
2024-03-16T10:45:45.456Z,90.19
2024-03-16T10:55:47.761Z,90.47
2024-03-16T11:05:49.977Z,91.88
2024-03-16T11:15:52.078Z,90.36
2024-03-16T11:25:54.581Z,81.47
2024-03-16T11:35:57.310Z,79.11
2024-03-16T11:45:59.906Z,79.57
2024-03-16T11:56:02.084Z,82.17
2024-03-16T12:06:04.216Z,80.41
2024-03-16T12:16:06.572Z,75.14
2024-03-16T12:26:09.820Z,76.01
2024-03-16T12:36:11.800Z,75.12
2024-03-16T12:46:14.432Z,77.27
2024-03-16T12:56:16.679Z,72.88
2024-03-16T13:06:19.261Z,71.2
2024-03-16T13:16:21.443Z,71.45
2024-03-16T13:26:23.581Z,70.65
2024-03-16T13:36:25.843Z,69.04
2024-03-16T13:46:28.277Z,70.1
2024-03-16T13:56:30.986Z,69.74
2024-03-16T14:06:33.889Z,70.84
2024-03-16T14:16:36.142Z,70.56
2024-03-16T14:26:38.614Z,73.84
2024-03-16T14:36:40.482Z,75.05
2024-03-16T14:46:42.945Z,64.86
2024-03-16T14:56:45.563Z,65.57
2024-03-16T15:06:48.096Z,59.98
2024-03-16T15:16:51.454Z,55.7
2024-03-16T15:26:53.575Z,50.22
2024-03-16T15:36:56.418Z,43.15
2024-03-16T15:46:59.195Z,58.72
2024-03-16T15:57:01.444Z,39.37
2024-03-16T16:07:04.182Z,51.1
2024-03-16T16:17:06.742Z,57.75
2024-03-16T16:27:16.193Z,63.34
2024-03-16T16:37:19.139Z,67.37
2024-03-16T16:47:21.370Z,72.23
2024-03-16T16:57:23.195Z,75.31
2024-03-16T17:07:24.984Z,76.52
2024-03-16T17:17:27.193Z,78.76
2024-03-16T17:27:30.302Z,82.12
2024-03-16T17:37:37.017Z,82.32
2024-03-16T17:47:39.718Z,81.39
2024-03-16T17:57:45.272Z,83.07
2024-03-16T18:07:51.085Z,84.91
2024-03-16T18:18:07.847Z,84.7
2024-03-16T18:28:11.487Z,84.2
2024-03-16T18:38:14.271Z,85.25
2024-03-16T18:48:16.303Z,88.04
2024-03-16T18:58:19.041Z,90.93
2024-03-16T19:08:21.125Z,91.89
2024-03-16T19:18:23.135Z,93.38
2024-03-16T19:28:25.390Z,94.28
2024-03-16T19:38:27.317Z,93.7
2024-03-16T19:48:29.859Z,94.99
2024-03-16T19:58:33.017Z,95.82
2024-03-16T20:08:35.474Z,95.58
2024-03-16T20:18:37.728Z,95.71
2024-03-16T20:28:40.691Z,95.38
2024-03-16T20:38:42.917Z,97.81
2024-03-16T20:48:52.707Z,99.69
2024-03-16T20:58:54.687Z,100
2024-03-16T21:08:57.386Z,100
2024-03-16T21:18:59.554Z,100
2024-03-16T21:29:10.179Z,100
2024-03-16T21:39:11.463Z,100
2024-03-16T21:49:13.689Z,100
2024-03-16T21:59:15.835Z,100
2024-03-16T22:09:17.977Z,99.45
2024-03-16T22:19:20.450Z,100
2024-03-16T22:29:23.079Z,100
2024-03-16T22:39:25.344Z,100
2024-03-16T22:49:28.039Z,100
2024-03-16T22:59:30.075Z,100
2024-03-16T23:09:31.875Z,100
2024-03-16T23:19:33.938Z,100
2024-03-16T23:29:36.230Z,100
2024-03-16T23:39:45.917Z,100
2024-03-16T23:49:48.270Z,98.65
2024-03-16T23:59:50.602Z,96.54
